Map

Track Data

SID SEASON NUMBER BASIN SUBBASIN NAME ISO_TIME NATURE LAT LON WMO_WIND WMO_PRES WMO_AGENCY TRACK_TYPE DIST2LAND LANDFALL IFLAG USA_AGENCY USA_ATCF_ID USA_LAT USA_LON USA_RECORD USA_STATUS USA_WIND USA_PRES USA_SSHS USA_R34_NE USA_R34_SE USA_R34_SW USA_R34_NW USA_R50_NE USA_R50_SE USA_R50_SW USA_R50_NW USA_R64_NE USA_R64_SE USA_R64_SW USA_R64_NW USA_POCI USA_ROCI USA_RMW USA_EYE TOKYO_LAT TOKYO_LON TOKYO_GRADE TOKYO_WIND TOKYO_PRES TOKYO_R50_DIR TOKYO_R50_LONG TOKYO_R50_SHORT TOKYO_R30_DIR TOKYO_R30_LONG TOKYO_R30_SHORT TOKYO_LAND CMA_LAT CMA_LON CMA_CAT CMA_WIND CMA_PRES HKO_LAT HKO_LON HKO_CAT HKO_WIND HKO_PRES NEWDELHI_LAT NEWDELHI_LON NEWDELHI_GRADE NEWDELHI_WIND NEWDELHI_PRES NEWDELHI_CI NEWDELHI_DP NEWDELHI_POCI REUNION_LAT REUNION_LON REUNION_TYPE REUNION_WIND REUNION_PRES REUNION_TNUM REUNION_CI REUNION_RMW REUNION_R34_NE REUNION_R34_SE REUNION_R34_SW REUNION_R34_NW REUNION_R50_NE REUNION_R50_SE REUNION_R50_SW REUNION_R50_NW REUNION_R64_NE REUNION_R64_SE REUNION_R64_SW REUNION_R64_NW BOM_LAT BOM_LON BOM_TYPE BOM_WIND BOM_PRES BOM_TNUM BOM_CI BOM_RMW BOM_R34_NE BOM_R34_SE BOM_R34_SW BOM_R34_NW BOM_R50_NE BOM_R50_SE BOM_R50_SW BOM_R50_NW BOM_R64_NE BOM_R64_SE BOM_R64_SW BOM_R64_NW BOM_ROCI BOM_POCI BOM_EYE BOM_POS_METHOD BOM_PRES_METHOD NADI_LAT NADI_LON NADI_CAT NADI_WIND NADI_PRES WELLINGTON_LAT WELLINGTON_LON WELLINGTON_WIND WELLINGTON_PRES DS824_LAT DS824_LON DS824_STAGE DS824_WIND DS824_PRES TD9636_LAT TD9636_LON TD9636_STAGE TD9636_WIND TD9636_PRES TD9635_LAT TD9635_LON TD9635_WIND TD9635_PRES TD9635_ROCI NEUMANN_LAT NEUMANN_LON NEUMANN_CLASS NEUMANN_WIND NEUMANN_PRES MLC_LAT MLC_LON MLC_CLASS MLC_WIND MLC_PRES USA_GUST BOM_GUST BOM_GUST_PER REUNION_GUST REUNION_GUST_PER USA_SEAHGT USA_SEARAD_NE USA_SEARAD_SE USA_SEARAD_SW USA_SEARAD_NW STORM_SPEED STORM_DIR
1987353S08177 1988 103 SP MM NOT_NAMED 1987-12-18 18:00:00 TS -7.50000 176.500 main 1038 1020 O_________O_O_ jtwc_sh SH041988 -7.50000 176.500 20 -1 -7.50000 176.500 1 20 -7.50000 176.500 TC 20 4 134
1987353S08177 1988 103 SP MM NOT_NAMED 1987-12-18 21:00:00 TS -7.64973 176.659 main 1020 995 P_________P_P_ SH041988 -7.65002 176.660 22 -1 -7.64917 176.657 1 22 -7.65002 176.660 TC 22 4 136
1987353S08177 1988 103 SP MM NOT_NAMED 1987-12-19 00:00:00 TS -7.80000 176.800 main 995 981 O_________O_O_ jtwc_sh SH041988 -7.80000 176.800 25 -1 -7.80000 176.800 1 25 -7.80000 176.800 TC 25 4 140
1987353S08177 1988 103 SP MM NOT_NAMED 1987-12-19 03:00:00 TS -7.95112 176.912 main 970 956 P_________P_P_ SH041988 -7.94999 176.908 25 -1 -7.95339 176.920 1 25 -7.94999 176.908 TC 25 4 146
1987353S08177 1988 103 SP MM NOT_NAMED 1987-12-19 06:00:00 TS -8.10226 177.007 main 956 942 O_________P_O_ jtwc_sh SH041988 -8.10000 177.000 25 -1 -8.10679 177.021 1 25 -8.10000 177.000 TC 25 4 148
1987353S08177 1988 103 SP MM NOT_NAMED 1987-12-19 09:00:00 TS -8.25226 177.104 main 932 917 P_________P_P_ SH041988 -8.25000 177.100 25 -1 -8.25680 177.111 1 25 -8.25000 177.100 TC 25 4 147
1987353S08177 1988 103 SP MM NOT_NAMED 1987-12-19 12:00:00 TS -8.40000 177.200 main 917 903 O_________O_O_ jtwc_sh SH041988 -8.40000 177.200 25 -1 -8.40000 177.200 1 25 -8.40000 177.200 TC 25 4 147
1987353S08177 1988 103 SP MM NOT_NAMED 1987-12-19 15:00:00 TS -8.54771 177.301 main 903 879 P_________P_P_ SH041988 -8.55750 177.300 27 -1 -8.52812 177.304 1 27 -8.55750 177.300 TC 27 3 145
1987353S08177 1988 103 SP MM NOT_NAMED 1987-12-19 18:00:00 TS -8.68333 177.403 main 879 865 O_________P_O_ jtwc_sh SH041988 -8.70000 177.400 30 -1 -8.65000 177.408 1 30 -8.70000 177.400 TC 30 3 141
1987353S08177 1988 103 SP MM NOT_NAMED 1987-12-19 21:00:00 TS -8.79062 177.502 main 865 851 P_________P_P_ SH041988 -8.80000 177.500 32 -1 -8.77188 177.507 1 32 -8.80000 177.500 TC 32 3 138
1987353S08177 1988 103 SP MM NOT_NAMED 1987-12-20 00:00:00 TS -8.90000 177.600 main 851 837 O_________O_O_ jtwc_sh SH041988 -8.90000 177.600 35 0 -8.90000 177.600 2 35 -8.90000 177.600 TC 35 3 143
1987353S08177 1988 103 SP MM NOT_NAMED 1987-12-20 03:00:00 TS -9.03853 177.695 main 837 813 P_________P_P_ SH041988 -9.04250 177.708 35 0 -9.03059 177.670 2 35 -9.04250 177.708 TC 35 3 148
1987353S08177 1988 103 SP MM NOT_NAMED 1987-12-20 06:00:00 TS -9.18998 177.778 main 813 802 O_________P_O_ jtwc_sh SH041988 -9.20000 177.800 35 0 -9.16995 177.735 2 35 -9.20000 177.800 TC 35 3 156
1987353S08177 1988 103 SP MM NOT_NAMED 1987-12-20 09:00:00 TS -9.33643 177.831 main 802 777 P_________P_P_ SH041988 -9.34248 177.843 35 0 -9.32433 177.808 2 35 -9.34248 177.843 TC 35 3 159
1987353S08177 1988 103 SP MM NOT_NAMED 1987-12-20 12:00:00 TS -9.50000 177.900 main 777 753 O_________O_O_ jtwc_sh SH041988 -9.50000 177.900 35 0 -9.50000 177.900 2 35 -9.50000 177.900 TC 35 4 150
1987353S08177 1988 103 SP MM NOT_NAMED 1987-12-20 15:00:00 TS -9.68168 178.033 main 753 726 P_________P_P_ SH041988 -9.68501 178.035 35 0 -9.67503 178.029 2 33 -9.68501 178.035 TC 35 5 144
1987353S08177 1988 103 SP MM NOT_NAMED 1987-12-20 18:00:00 TS -9.89168 178.193 main 726 702 O_________P_O_ jtwc_sh SH041988 -9.90000 178.200 35 0 -9.87505 178.178 2 32 -9.90000 178.200 TC 35 5 145
1987353S08177 1988 103 SP MM NOT_NAMED 1987-12-20 21:00:00 TS -10.1225 178.341 main 702 664 P_________P_P_ SH041988 -10.1275 178.343 32 -1 -10.1125 178.338 2 31 -10.1275 178.343 TC 32 6 149
1987353S08177 1988 103 SP MM NOT_NAMED 1987-12-21 00:00:00 TS -10.4000 178.500 main 664 627 O_________O_O_ jtwc_sh SH041988 -10.4000 178.500 30 -1 -10.4000 178.500 1 30 -10.4000 178.500 TC 30 7 150
1987353S08177 1988 103 SP MM NOT_NAMED 1987-12-21 03:00:00 TS -10.7272 178.694 main 627 579 P_________P_P_ SH041988 -10.7200 178.707 30 -1 -10.7416 178.666 1 28 -10.7200 178.707 TC 30 8 153
1987353S08177 1988 103 SP MM NOT_NAMED 1987-12-21 06:00:00 TS -11.1109 178.877 main 579 533 O_________P_O_ jtwc_sh SH041988 -11.1000 178.900 30 -1 -11.1326 178.830 1 27 -11.1000 178.900 TC 30 9 159
1987353S08177 1988 103 SP MM NOT_NAMED 1987-12-21 09:00:00 TS -11.5424 179.003 main 533 476 P_________P_P_ SH041988 -11.5350 179.015 27 -1 -11.5573 178.979 1 26 -11.5350 179.015 TC 27 9 166
1987353S08177 1988 103 SP MM NOT_NAMED 1987-12-21 12:00:00 TS -12.0000 179.100 main 476 430 O_________O_O_ jtwc_sh SH041988 -12.0000 179.100 25 -1 -12.0000 179.100 1 25 -12.0000 179.100 TC 25 9 169
1987353S08177 1988 103 SP MM NOT_NAMED 1987-12-21 15:00:00 TS -12.4505 179.186 main 419 375 P_________P_P_ SH041988 -12.4500 179.215 27 -1 -12.4516 179.127 1 26 -12.4500 179.215 TC 27 9 171
1987353S08177 1988 103 SP MM NOT_NAMED 1987-12-21 18:00:00 TS -12.9049 179.245 main 375 329 O_________P_O_ jtwc_sh SH041988 -12.9000 179.300 30 -1 -12.9146 179.134 1 27 -12.9000 179.300 TC 30 9 175
1987353S08177 1988 103 SP MM NOT_NAMED 1987-12-21 21:00:00 TS -13.3567 179.258 main 318 273 P_________P_P_ SH041988 -13.3500 179.300 30 -1 -13.3702 179.174 1 28 -13.3500 179.300 TC 30 9 176
1987353S08177 1988 103 SP MM NOT_NAMED 1987-12-22 00:00:00 TS -13.8000 179.300 main 273 216 O_________O_O_ jtwc_sh SH041988 -13.8000 179.300 30 -1 -13.8000 179.300 1 30 -13.8000 179.300 TC 30 9 174
1987353S08177 1988 103 SP MM NOT_NAMED 1987-12-22 03:00:00 TS -14.2896 179.362 main 216 169 P_________P_P_ SH041988 -14.2797 179.303 27 -1 -14.3094 179.480 1 28 -14.2797 179.303 TC 27 10 163
1987353S08177 1988 103 SP MM NOT_NAMED 1987-12-22 06:00:00 TS -14.7238 179.588 main 169 124 O_________P_O_ jtwc_sh SH041988 -14.7000 179.500 25 -1 -14.7713 179.765 1 27 -14.7000 179.500 TC 25 11 138
1987353S08177 1988 103 SP MM NOT_NAMED 1987-12-22 09:00:00 TS -15.0692 180.089 main 124 119 P_________P_P_ SH041988 -15.0550 -179.963 25 -1 -15.0977 -179.807 1 26 -15.0550 -179.963 TC 25 13 112
1987353S08177 1988 103 SP MM NOT_NAMED 1987-12-22 12:00:00 TS -15.2000 180.800 main 147 147 O_________O_O_ jtwc_sh SH041988 -15.2000 -179.200 25 -1 -15.2000 -179.200 1 25 -15.2000 -179.200 TC 25 15 89
1987353S08177 1988 103 SP MM NOT_NAMED 1987-12-22 15:00:00 TS -15.0369 181.625 main 226 226 P_________P_P_ SH041988 -15.0406 -178.361 25 -1 -15.0296 -178.402 1 25 -15.0406 -178.361 TC 25 17 73
1987353S08177 1988 103 SP MM NOT_NAMED 1987-12-22 18:00:00 TS -14.7000 182.500 main 325 O_________O_O_ jtwc_sh SH041988 -14.7000 -177.500 25 -1 -14.7000 -177.500 1 25 -14.7000 -177.500 TC 25 18 68

Digital Typhoon Data and Search

About IBTrACS Database

This database is a web-friendly format of International Best Track Archive for Climate Stewardship (IBTrACS), a global best track data archive curated by NOAA dating back to 1842.

Updated: 2021-11-26